createdAt,value
2018-06-21T00:01:50.853Z,18.90
2018-06-21T00:06:00.174Z,19.20
2018-06-21T00:08:05.222Z,18.90
2018-06-21T00:10:10.308Z,18.80
2018-06-21T00:12:15.299Z,18.60
2018-06-21T00:14:20.310Z,18.90
2018-06-21T00:16:25.860Z,18.90
2018-06-21T00:18:30.921Z,18.70
2018-06-21T00:20:35.987Z,18.70
2018-06-21T00:22:40.956Z,18.70
2018-06-21T00:24:45.936Z,19.00
2018-06-21T00:26:50.868Z,18.90
2018-06-21T00:28:55.962Z,18.90
2018-06-21T00:31:01.010Z,18.80
2018-06-21T00:33:06.099Z,18.70
2018-06-21T00:35:11.081Z,18.60
2018-06-21T00:37:16.411Z,19.00
2018-06-21T00:39:21.857Z,18.70
2018-06-21T00:41:26.866Z,18.70
2018-06-21T00:43:31.801Z,18.90
2018-06-21T00:45:36.820Z,19.00
2018-06-21T00:47:42.494Z,19.00
2018-06-21T00:49:47.547Z,18.90
2018-06-21T00:51:53.807Z,18.90
2018-06-21T00:53:58.749Z,18.90
2018-06-21T00:56:13.649Z,19.20
2018-06-21T00:58:18.602Z,19.40
2018-06-21T01:00:24.105Z,19.00
2018-06-21T01:02:29.086Z,18.60
2018-06-21T01:04:34.029Z,18.60
2018-06-21T01:06:38.963Z,18.90
2018-06-21T01:08:44.097Z,18.40
2018-06-21T01:10:49.172Z,18.80
2018-06-21T01:12:54.621Z,18.80
2018-06-21T01:14:59.631Z,18.40
2018-06-21T01:17:04.611Z,19.10
2018-06-21T01:19:09.635Z,19.30
2018-06-21T01:21:14.656Z,19.10
2018-06-21T01:23:19.686Z,18.70
2018-06-21T01:25:24.619Z,19.00
2018-06-21T01:27:29.570Z,18.90
2018-06-21T01:29:34.579Z,19.00
2018-06-21T01:31:39.890Z,18.70
2018-06-21T01:33:44.889Z,18.40
2018-06-21T01:35:49.931Z,18.70
2018-06-21T01:37:54.939Z,18.10
2018-06-21T01:39:59.986Z,18.30
2018-06-21T01:42:05.071Z,18.60
2018-06-21T01:44:10.043Z,18.50
2018-06-21T01:46:16.462Z,18.20
2018-06-21T01:48:22.231Z,18.40
2018-06-21T01:50:27.262Z,18.20
2018-06-21T01:52:32.469Z,18.50
2018-06-21T01:54:37.668Z,18.50
2018-06-21T01:56:43.476Z,18.90
2018-06-21T01:58:48.689Z,19.10
2018-06-21T02:00:54.287Z,19.10
2018-06-21T02:02:59.918Z,18.90
2018-06-21T02:05:05.012Z,18.80
2018-06-21T02:07:12.862Z,18.90
2018-06-21T02:09:17.871Z,18.80
2018-06-21T02:11:22.826Z,18.80
2018-06-21T02:13:27.869Z,18.90
2018-06-21T02:15:32.900Z,19.20
2018-06-21T02:17:38.033Z,19.30
2018-06-21T02:19:43.813Z,19.80
2018-06-21T02:21:48.942Z,19.50
2018-06-21T02:23:54.523Z,19.60
2018-06-21T02:25:59.564Z,19.40
2018-06-21T02:28:04.668Z,19.50
2018-06-21T02:30:09.884Z,19.50
2018-06-21T02:32:15.066Z,19.80
2018-06-21T02:34:20.214Z,19.70
2018-06-21T02:36:25.503Z,19.70
2018-06-21T02:38:30.688Z,19.70
2018-06-21T02:40:36.110Z,19.90
2018-06-21T02:42:41.530Z,19.90
2018-06-21T02:44:46.659Z,19.80
2018-06-21T02:46:51.825Z,19.80
2018-06-21T02:48:57.397Z,20.00
2018-06-21T02:51:02.520Z,20.10
2018-06-21T02:53:07.698Z,20.10
2018-06-21T02:57:18.344Z,20.10
2018-06-21T02:59:23.761Z,20.10
2018-06-21T03:01:28.883Z,20.10
2018-06-21T03:03:34.034Z,20.00
2018-06-21T03:05:39.514Z,20.10
2018-06-21T03:07:44.676Z,19.90
2018-06-21T03:09:50.318Z,19.90
2018-06-21T03:11:55.379Z,20.00
2018-06-21T03:14:00.763Z,20.00
2018-06-21T03:16:05.908Z,20.00
2018-06-21T03:18:11.168Z,20.00
2018-06-21T03:20:16.839Z,19.60
2018-06-21T03:22:21.908Z,19.40
2018-06-21T03:24:26.940Z,19.30
2018-06-21T03:26:32.838Z,18.80
2018-06-21T03:28:38.203Z,19.30
2018-06-21T03:30:43.406Z,19.50
2018-06-21T03:32:48.571Z,19.50
2018-06-21T03:34:53.477Z,19.60
2018-06-21T03:36:58.427Z,19.50
2018-06-21T03:39:04.235Z,19.30
2018-06-21T03:43:13.999Z,19.50
2018-06-21T03:45:18.968Z,19.10
2018-06-21T03:47:24.600Z,19.20
2018-06-21T03:49:30.180Z,19.40
2018-06-21T03:51:35.182Z,19.50
2018-06-21T03:53:40.147Z,18.70
2018-06-21T03:55:45.511Z,18.20
2018-06-21T03:57:50.611Z,18.80
2018-06-21T03:59:55.826Z,19.10
2018-06-21T04:02:01.355Z,19.40
2018-06-21T04:04:06.779Z,19.50
2018-06-21T04:06:11.684Z,19.50
2018-06-21T04:08:17.180Z,19.30
2018-06-21T04:10:22.942Z,19.20
2018-06-21T04:12:28.022Z,17.80
2018-06-21T04:14:32.993Z,18.10
2018-06-21T04:16:39.055Z,18.20
2018-06-21T04:18:44.273Z,18.10
2018-06-21T04:20:49.400Z,17.70
2018-06-21T04:22:54.933Z,18.00
2018-06-21T04:24:59.871Z,18.30
2018-06-21T04:27:05.971Z,18.50
2018-06-21T04:29:10.923Z,18.40
2018-06-21T04:31:15.901Z,18.50
2018-06-21T04:33:20.922Z,17.90
2018-06-21T04:35:25.918Z,17.40
2018-06-21T04:37:31.094Z,18.00
2018-06-21T04:39:36.114Z,17.70
2018-06-21T04:41:41.282Z,17.90
2018-06-21T04:43:46.314Z,17.80
2018-06-21T04:45:51.239Z,17.70
2018-06-21T04:47:56.875Z,18.10
2018-06-21T04:50:01.960Z,17.40
2018-06-21T04:52:07.608Z,18.10
2018-06-21T04:54:13.502Z,18.60
2018-06-21T04:56:19.287Z,18.80
2018-06-21T04:58:24.294Z,18.90
2018-06-21T05:00:29.886Z,18.90
2018-06-21T05:02:34.798Z,18.90
2018-06-21T05:04:39.765Z,19.00
2018-06-21T05:06:44.779Z,19.20
2018-06-21T05:08:49.903Z,18.90
2018-06-21T05:10:57.833Z,19.00
2018-06-21T05:13:02.831Z,19.20
2018-06-21T05:15:07.855Z,19.30
2018-06-21T05:17:12.836Z,19.20
2018-06-21T05:19:17.819Z,19.10
2018-06-21T05:21:22.784Z,18.80
2018-06-21T05:23:27.785Z,18.70
2018-06-21T05:25:33.003Z,18.40
2018-06-21T05:27:37.979Z,18.50
2018-06-21T05:29:43.141Z,18.50
2018-06-21T05:31:48.063Z,18.90
2018-06-21T05:33:52.983Z,19.20
2018-06-21T05:35:57.991Z,18.70
2018-06-21T05:38:02.930Z,18.50
2018-06-21T05:40:13.198Z,18.80
2018-06-21T05:42:18.370Z,18.90
2018-06-21T05:44:23.811Z,18.90
2018-06-21T05:46:29.479Z,18.20
2018-06-21T05:48:34.408Z,18.70
2018-06-21T05:50:39.370Z,18.70
2018-06-21T05:52:44.309Z,19.00
2018-06-21T05:54:49.273Z,19.00
2018-06-21T05:56:54.208Z,18.70
2018-06-21T05:58:59.235Z,19.00
2018-06-21T06:01:04.241Z,18.90
2018-06-21T06:03:09.227Z,18.40
2018-06-21T06:05:14.175Z,18.70
2018-06-21T06:07:19.112Z,18.90
2018-06-21T06:09:25.105Z,18.60
2018-06-21T06:11:30.336Z,18.60
2018-06-21T06:13:35.272Z,18.30
2018-06-21T06:15:40.227Z,18.30
2018-06-21T06:17:45.609Z,18.40
2018-06-21T06:19:50.577Z,18.10
2018-06-21T06:21:55.562Z,17.80
2018-06-21T06:24:00.560Z,17.80
2018-06-21T06:26:05.719Z,18.00
2018-06-21T06:28:10.674Z,17.50
2018-06-21T06:30:15.629Z,17.60
2018-06-21T06:32:20.609Z,17.60
2018-06-21T06:34:25.592Z,17.00
2018-06-21T06:36:31.142Z,17.70
2018-06-21T06:38:36.941Z,17.50
2018-06-21T06:40:41.918Z,17.60
2018-06-21T06:42:46.944Z,17.70
2018-06-21T06:44:52.082Z,17.10
2018-06-21T06:46:57.361Z,16.50
2018-06-21T06:49:02.681Z,15.80
2018-06-21T06:51:07.687Z,16.00
2018-06-21T06:53:12.624Z,16.00
2018-06-21T06:55:17.568Z,16.10
2018-06-21T06:57:23.095Z,16.20
2018-06-21T07:01:32.320Z,16.10
2018-06-21T07:03:37.285Z,16.60
2018-06-21T07:05:42.220Z,16.20
2018-06-21T07:07:48.135Z,16.10
2018-06-21T07:09:53.143Z,16.50
2018-06-21T07:11:58.490Z,16.50
2018-06-21T07:14:03.604Z,16.80
2018-06-21T07:16:09.062Z,17.20
2018-06-21T07:18:13.999Z,17.10
2018-06-21T07:20:19.444Z,16.90
2018-06-21T07:22:25.232Z,16.40
2018-06-21T07:24:30.206Z,16.30
2018-06-21T07:26:35.227Z,16.70
2018-06-21T07:28:40.223Z,16.50
2018-06-21T07:30:45.275Z,16.30
2018-06-21T07:32:51.207Z,16.70
2018-06-21T07:34:56.174Z,16.90
2018-06-21T07:37:01.201Z,16.40
2018-06-21T07:39:08.625Z,15.90
2018-06-21T07:41:13.631Z,15.90
2018-06-21T07:43:18.587Z,15.80
2018-06-21T07:45:23.885Z,15.80
2018-06-21T07:47:28.831Z,16.00
2018-06-21T07:49:34.638Z,16.20
2018-06-21T07:51:39.619Z,15.40
2018-06-21T07:53:44.798Z,15.90
2018-06-21T07:55:49.757Z,16.30
2018-06-21T07:57:54.776Z,15.70
2018-06-21T07:59:59.687Z,16.10
2018-06-21T08:02:05.387Z,16.20
2018-06-21T08:04:10.383Z,15.70
2018-06-21T08:06:15.299Z,15.80
2018-06-21T08:08:20.204Z,15.70
2018-06-21T08:10:25.555Z,16.10
2018-06-21T08:12:30.531Z,16.10
2018-06-21T08:14:35.502Z,15.80
2018-06-21T08:16:43.588Z,15.70
2018-06-21T08:18:48.491Z,15.20
2018-06-21T08:20:53.737Z,15.30
2018-06-21T08:22:58.708Z,15.50
2018-06-21T08:25:03.686Z,14.90
2018-06-21T08:27:08.675Z,14.30
2018-06-21T08:29:13.876Z,14.70
2018-06-21T08:31:19.164Z,14.80
2018-06-21T08:33:24.141Z,14.50
2018-06-21T08:35:29.050Z,14.60
2018-06-21T08:37:34.268Z,14.70
2018-06-21T08:39:39.221Z,14.10
2018-06-21T08:41:44.231Z,13.70
2018-06-21T08:43:49.662Z,14.00
2018-06-21T08:45:55.038Z,14.80
2018-06-21T08:48:00.032Z,14.60
2018-06-21T08:50:05.125Z,14.40
2018-06-21T08:52:10.124Z,14.50
2018-06-21T08:54:15.047Z,14.20
2018-06-21T08:56:19.995Z,14.10
2018-06-21T08:58:25.120Z,14.60
2018-06-21T09:00:30.104Z,15.10
2018-06-21T09:02:35.427Z,14.70
2018-06-21T09:04:40.459Z,15.10
2018-06-21T09:06:45.371Z,15.60
2018-06-21T09:08:50.338Z,16.40
2018-06-21T09:10:55.379Z,16.40
2018-06-21T09:13:00.387Z,15.90
2018-06-21T09:15:07.476Z,16.30
2018-06-21T09:17:12.393Z,15.80
2018-06-21T09:19:17.382Z,14.50
2018-06-21T09:21:22.380Z,15.00
2018-06-21T09:23:27.398Z,15.30
2018-06-21T09:25:46.298Z,15.60
2018-06-21T09:27:51.261Z,16.00
2018-06-21T09:29:56.902Z,15.40
2018-06-21T09:32:18.087Z,15.30
2018-06-21T09:34:23.160Z,15.20
2018-06-21T09:36:31.459Z,15.80
2018-06-21T09:38:41.438Z,15.40
2018-06-21T09:40:51.424Z,15.30
2018-06-21T09:43:01.359Z,15.60
2018-06-21T09:45:06.440Z,15.60
2018-06-21T09:47:16.935Z,16.20
2018-06-21T09:49:22.522Z,16.80
2018-06-21T09:51:27.657Z,16.70
2018-06-21T09:53:33.002Z,16.80
2018-06-21T09:55:38.421Z,16.60
2018-06-21T09:57:43.329Z,16.20
2018-06-21T09:59:48.294Z,16.90
2018-06-21T10:01:53.322Z,16.60
2018-06-21T10:03:58.788Z,16.40
2018-06-21T10:06:03.775Z,16.70
2018-06-21T10:08:08.700Z,16.70
2018-06-21T10:10:13.730Z,16.70
2018-06-21T10:12:19.574Z,16.70
2018-06-21T10:14:24.522Z,16.30
2018-06-21T10:16:30.849Z,15.50
2018-06-21T10:18:35.814Z,16.10
2018-06-21T10:20:40.861Z,15.80
2018-06-21T10:22:46.394Z,16.10
2018-06-21T10:24:51.298Z,16.30
2018-06-21T10:26:59.625Z,16.20
2018-06-21T10:29:05.563Z,15.90
2018-06-21T10:31:11.068Z,16.60
2018-06-21T10:33:16.049Z,16.20
2018-06-21T10:35:21.987Z,16.50
2018-06-21T10:37:27.027Z,16.80
2018-06-21T10:39:32.208Z,16.10
2018-06-21T10:41:37.587Z,15.90
2018-06-21T10:43:42.530Z,16.10
2018-06-21T10:45:47.867Z,16.70
2018-06-21T10:47:53.140Z,16.10
2018-06-21T10:49:58.394Z,16.00
2018-06-21T10:52:03.359Z,16.60
2018-06-21T10:54:08.377Z,16.40
2018-06-21T10:56:13.399Z,17.00
2018-06-21T10:58:18.353Z,17.10
2018-06-21T11:00:23.365Z,16.90
2018-06-21T11:02:28.371Z,16.70
2018-06-21T11:04:33.342Z,16.80
2018-06-21T11:06:38.275Z,16.70
2018-06-21T11:08:43.427Z,15.80
2018-06-21T11:10:48.363Z,15.80
2018-06-21T11:12:55.171Z,16.00
2018-06-21T11:15:00.110Z,16.70
2018-06-21T11:17:05.274Z,16.80
2018-06-21T11:19:10.210Z,16.10
2018-06-21T11:21:15.414Z,15.70
2018-06-21T11:23:20.424Z,15.40
2018-06-21T11:25:25.487Z,15.30
2018-06-21T11:27:30.466Z,15.60
2018-06-21T11:29:36.344Z,16.20
2018-06-21T11:31:42.151Z,16.20
2018-06-21T11:33:47.375Z,16.90
2018-06-21T11:35:52.371Z,17.10
2018-06-21T11:37:57.263Z,17.50
2018-06-21T11:40:02.323Z,17.40
2018-06-21T11:42:07.314Z,17.40
2018-06-21T11:44:12.455Z,16.50
2018-06-21T11:46:17.450Z,16.60
2018-06-21T11:48:23.461Z,16.70
2018-06-21T11:52:33.617Z,16.30
2018-06-21T11:54:39.007Z,16.60
2018-06-21T11:56:45.300Z,17.00
2018-06-21T11:58:50.619Z,16.80
2018-06-21T12:00:55.616Z,16.40
2018-06-21T12:03:00.563Z,17.00
2018-06-21T12:05:06.357Z,17.30
2018-06-21T12:07:11.702Z,17.30
2018-06-21T12:09:16.716Z,17.80
2018-06-21T12:11:22.027Z,17.90
2018-06-21T12:13:30.684Z,18.00
2018-06-21T12:15:36.932Z,17.50
2018-06-21T12:17:42.695Z,17.00
2018-06-21T12:19:47.623Z,16.60
2018-06-21T12:21:52.675Z,17.60
2018-06-21T12:23:58.096Z,17.60
2018-06-21T12:26:03.192Z,18.00
2018-06-21T12:28:08.149Z,17.60
2018-06-21T12:30:13.229Z,17.10
2018-06-21T12:32:18.226Z,17.00
2018-06-21T12:34:23.694Z,17.30
2018-06-21T12:36:29.714Z,17.50
2018-06-21T12:38:34.621Z,17.90
2018-06-21T12:40:39.601Z,18.40
2018-06-21T12:42:45.388Z,18.10
2018-06-21T12:44:50.344Z,18.10
2018-06-21T12:46:55.556Z,18.50
2018-06-21T12:49:00.620Z,17.70
2018-06-21T12:51:05.552Z,17.70
2018-06-21T12:53:10.781Z,18.20
2018-06-21T12:55:16.099Z,18.20
2018-06-21T12:57:22.874Z,18.20
2018-06-21T12:59:27.860Z,18.30
2018-06-21T13:01:33.611Z,17.50
2018-06-21T13:03:39.503Z,17.40
2018-06-21T13:05:45.919Z,18.30
2018-06-21T13:07:51.208Z,18.00
2018-06-21T13:10:07.091Z,18.00
2018-06-21T13:12:36.937Z,17.50
2018-06-21T13:14:41.858Z,17.90
2018-06-21T13:16:48.998Z,18.60
2018-06-21T13:18:54.552Z,18.80
2018-06-21T13:28:29.558Z,18.30
2018-06-21T13:30:34.778Z,18.10
2018-06-21T13:32:39.812Z,18.50
2018-06-21T13:34:44.765Z,18.50
2018-06-21T13:36:50.518Z,18.90
2018-06-21T13:38:55.510Z,19.00
2018-06-21T13:41:01.079Z,19.10
2018-06-21T13:43:06.163Z,18.90
2018-06-21T13:45:11.275Z,18.80
2018-06-21T13:47:16.292Z,18.20
2018-06-21T13:49:21.322Z,18.30
2018-06-21T13:51:26.288Z,18.30
2018-06-21T13:53:31.205Z,19.00
2018-06-21T13:55:36.151Z,18.90
2018-06-21T13:57:41.385Z,18.80
2018-06-21T13:59:46.341Z,18.90
2018-06-21T14:01:51.742Z,19.00
2018-06-21T14:03:56.749Z,19.10
2018-06-21T14:06:01.722Z,18.90
2018-06-21T14:08:06.920Z,18.50
2018-06-21T14:10:11.906Z,18.40
2018-06-21T14:12:19.653Z,18.20
2018-06-21T14:14:34.213Z,17.70
2018-06-21T14:16:48.717Z,18.30
2018-06-21T14:18:58.998Z,18.80
2018-06-21T14:21:04.749Z,19.10
2018-06-21T14:23:19.756Z,19.00
2018-06-21T14:25:33.260Z,18.70
2018-06-21T14:27:48.523Z,18.40
2018-06-21T14:30:05.197Z,18.40
2018-06-21T14:32:18.075Z,18.40
2018-06-21T14:34:29.433Z,18.10
2018-06-21T14:36:46.543Z,18.20
2018-06-21T14:39:03.436Z,18.00
2018-06-21T14:41:16.928Z,17.70
2018-06-21T14:43:29.001Z,17.70
2018-06-21T14:45:42.347Z,17.80
2018-06-21T14:47:59.100Z,17.90
2018-06-21T14:50:09.721Z,17.90
2018-06-21T14:52:19.206Z,18.70
2018-06-21T14:54:30.110Z,19.30
2018-06-21T14:56:40.731Z,19.20
2018-06-21T14:58:52.026Z,19.10
2018-06-21T15:01:03.346Z,19.20
2018-06-21T15:03:14.336Z,19.40
2018-06-21T15:05:24.094Z,18.90
2018-06-21T15:07:35.262Z,18.70
2018-06-21T15:09:47.421Z,18.60
2018-06-21T15:12:05.770Z,19.00
2018-06-21T15:14:24.214Z,19.20
2018-06-21T15:16:37.816Z,18.10
2018-06-21T15:18:50.790Z,18.50
2018-06-21T15:21:04.702Z,18.30
2018-06-21T15:23:19.302Z,18.50
2018-06-21T15:25:34.253Z,18.20
2018-06-21T15:27:47.817Z,18.80
2018-06-21T15:30:00.140Z,19.10
2018-06-21T15:32:14.710Z,19.80
2018-06-21T15:34:32.873Z,19.60
2018-06-21T15:36:58.245Z,19.00
2018-06-21T15:39:27.786Z,19.20
2018-06-21T15:44:05.891Z,19.30
2018-06-21T15:46:24.835Z,19.90
2018-06-21T15:48:46.481Z,20.30
2018-06-21T15:51:08.428Z,19.80
2018-06-21T15:53:32.011Z,19.50
2018-06-21T15:55:55.661Z,19.30
2018-06-21T15:58:17.725Z,18.70
2018-06-21T16:02:54.572Z,17.50
2018-06-21T16:05:12.478Z,17.40
2018-06-21T16:07:33.005Z,17.10
2018-06-21T16:09:56.532Z,18.00
2018-06-21T16:12:19.202Z,19.00
2018-06-21T16:14:41.458Z,19.50
2018-06-21T16:17:06.332Z,19.70
2018-06-21T16:19:27.608Z,19.80
2018-06-21T16:21:52.174Z,19.60
2018-06-21T16:24:13.355Z,19.70
2018-06-21T16:26:39.074Z,18.70
2018-06-21T16:29:00.900Z,18.80
2018-06-21T16:31:23.604Z,18.30
2018-06-21T16:33:43.099Z,17.70
2018-06-21T16:36:01.420Z,18.30
2018-06-21T16:38:26.157Z,17.90
2018-06-21T16:40:43.469Z,17.70
2018-06-21T16:43:03.575Z,17.50
2018-06-21T16:45:26.860Z,17.20
2018-06-21T16:47:41.257Z,17.00
2018-06-21T16:49:55.295Z,17.30
2018-06-21T16:52:09.269Z,17.50
2018-06-21T16:54:25.620Z,17.70
2018-06-21T16:56:40.387Z,17.50
2018-06-21T16:58:56.129Z,17.10
2018-06-21T17:01:11.281Z,17.20
2018-06-21T17:03:25.702Z,17.00
2018-06-21T17:05:41.325Z,17.00
2018-06-21T17:07:56.940Z,17.90
2018-06-21T17:10:11.330Z,18.10
2018-06-21T17:12:25.297Z,18.60
2018-06-21T17:14:38.794Z,18.70
2018-06-21T17:16:52.558Z,18.60
2018-06-21T17:19:05.728Z,17.30
2018-06-21T17:21:22.557Z,17.40
2018-06-21T17:23:38.018Z,17.80
2018-06-21T17:25:52.291Z,18.10
2018-06-21T17:28:07.003Z,18.20
2018-06-21T17:30:22.859Z,17.90
2018-06-21T17:32:38.272Z,17.50
2018-06-21T17:34:52.551Z,17.30
2018-06-21T17:37:00.034Z,17.10
2018-06-21T17:39:07.807Z,17.20
2018-06-21T17:41:12.787Z,17.10
2018-06-21T17:43:18.729Z,17.00
2018-06-21T17:45:23.952Z,17.20
2018-06-21T17:47:28.879Z,17.40
2018-06-21T17:49:33.901Z,17.20
2018-06-21T17:51:38.948Z,17.00
2018-06-21T17:53:43.952Z,16.70
2018-06-21T17:55:49.074Z,16.70
2018-06-21T17:57:54.261Z,16.60
2018-06-21T17:59:59.009Z,16.50
2018-06-21T18:02:03.967Z,16.40
2018-06-21T18:04:09.298Z,16.40
2018-06-21T18:06:14.262Z,16.20
2018-06-21T18:08:19.271Z,16.10
2018-06-21T18:10:24.329Z,16.30
2018-06-21T18:12:29.286Z,16.40
2018-06-21T18:14:34.302Z,16.20
2018-06-21T18:16:39.288Z,15.90
2018-06-21T18:18:44.239Z,16.20
2018-06-21T18:20:49.495Z,16.10
2018-06-21T18:22:54.855Z,15.50
2018-06-21T18:24:59.807Z,15.30
2018-06-21T18:27:04.848Z,15.20
2018-06-21T18:29:09.858Z,15.50
2018-06-21T18:31:14.806Z,15.40
2018-06-21T18:33:19.781Z,15.60
2018-06-21T18:35:24.852Z,16.00
2018-06-21T18:37:29.803Z,15.50
2018-06-21T18:39:34.750Z,15.40
2018-06-21T18:41:40.130Z,15.10
2018-06-21T18:43:45.143Z,15.30
2018-06-21T18:45:50.094Z,15.90
2018-06-21T18:47:55.118Z,15.00
2018-06-21T18:50:00.955Z,15.60
2018-06-21T18:52:06.120Z,15.10
2018-06-21T18:54:11.699Z,15.10
2018-06-21T18:56:16.668Z,14.90
2018-06-21T18:58:22.307Z,14.80
2018-06-21T19:00:27.210Z,14.30
2018-06-21T19:02:32.569Z,14.40
2018-06-21T19:04:37.848Z,13.90
2018-06-21T19:06:48.260Z,14.10
2018-06-21T19:08:58.388Z,14.30
2018-06-21T19:11:08.786Z,13.90
2018-06-21T19:13:15.558Z,14.60
2018-06-21T19:15:20.677Z,14.60
2018-06-21T19:17:26.029Z,14.20
2018-06-21T19:19:31.152Z,14.70
2018-06-21T19:21:36.891Z,14.20
2018-06-21T19:23:42.408Z,14.00
2018-06-21T19:25:47.488Z,14.10
2018-06-21T19:27:52.952Z,13.90
2018-06-21T19:29:57.922Z,13.90
2018-06-21T19:32:02.920Z,13.80
2018-06-21T19:34:07.900Z,14.00
2018-06-21T19:36:12.872Z,13.60
2018-06-21T19:38:17.840Z,13.30
2018-06-21T19:40:23.623Z,13.70
2018-06-21T19:42:28.681Z,13.50
2018-06-21T19:46:38.465Z,13.00
2018-06-21T19:48:44.140Z,13.20
2018-06-21T19:50:49.186Z,13.60
2018-06-21T19:52:55.060Z,13.70
2018-06-21T19:55:00.380Z,13.40
2018-06-21T19:57:05.749Z,13.40
2018-06-21T19:59:11.876Z,13.80
2018-06-21T20:03:23.754Z,13.40
2018-06-21T20:05:29.982Z,13.40
2018-06-21T20:07:35.192Z,13.10
2018-06-21T20:09:40.235Z,13.20
2018-06-21T20:11:45.233Z,13.10
2018-06-21T20:15:55.953Z,13.40
2018-06-21T20:18:01.091Z,13.70
2018-06-21T20:20:11.215Z,13.00
2018-06-21T20:22:16.103Z,12.20
2018-06-21T20:24:23.171Z,12.40
2018-06-21T20:26:29.681Z,12.30
2018-06-21T20:30:39.535Z,12.90
2018-06-21T20:32:44.681Z,12.90
2018-06-21T20:34:49.797Z,13.30
2018-06-21T20:36:54.753Z,12.40
2018-06-21T20:38:59.936Z,12.40
2018-06-21T20:41:04.891Z,12.70
2018-06-21T20:43:09.863Z,12.50
2018-06-21T20:45:14.936Z,12.10
2018-06-21T20:47:20.369Z,11.40
2018-06-21T20:49:25.317Z,12.00
2018-06-21T20:51:31.196Z,12.50
2018-06-21T20:53:36.120Z,12.60
2018-06-21T20:55:41.300Z,12.40
2018-06-21T20:57:46.287Z,12.30
2018-06-21T20:59:51.327Z,11.70
2018-06-21T21:01:57.234Z,11.70
2018-06-21T21:04:03.118Z,11.90
2018-06-21T21:06:08.933Z,11.70
2018-06-21T21:08:14.074Z,11.80
2018-06-21T21:10:19.922Z,11.70
2018-06-21T21:12:24.795Z,11.90
2018-06-21T21:16:34.220Z,11.50
2018-06-21T21:18:40.627Z,11.50
2018-06-21T21:20:45.731Z,11.80
2018-06-21T21:22:50.787Z,11.70
2018-06-21T21:24:56.998Z,11.80
2018-06-21T21:27:02.102Z,12.30
2018-06-21T21:29:07.407Z,12.20
2018-06-21T21:31:12.549Z,12.00
2018-06-21T21:33:18.059Z,12.00
2018-06-21T21:35:23.634Z,11.40
2018-06-21T21:37:29.055Z,11.50
2018-06-21T21:39:34.167Z,12.20
2018-06-21T21:41:39.327Z,12.00
2018-06-21T21:43:44.361Z,12.10
2018-06-21T21:45:49.334Z,11.20
2018-06-21T21:47:54.712Z,11.10
2018-06-21T21:50:00.358Z,11.40
2018-06-21T21:52:05.755Z,11.70
2018-06-21T21:54:10.654Z,11.30
2018-06-21T21:56:15.557Z,11.30
2018-06-21T21:58:20.647Z,11.00
2018-06-21T22:00:44.537Z,11.40
2018-06-21T22:02:49.433Z,11.50
2018-06-21T22:04:56.240Z,11.60
2018-06-21T22:07:01.290Z,11.60
2018-06-21T22:09:08.851Z,11.60
2018-06-21T22:11:13.926Z,11.60
2018-06-21T22:13:19.239Z,11.40
2018-06-21T22:15:24.263Z,11.00
2018-06-21T22:17:30.137Z,11.40
2018-06-21T22:19:35.103Z,11.50
2018-06-21T22:21:40.306Z,11.70
2018-06-21T22:23:45.223Z,11.70
2018-06-21T22:25:50.419Z,11.90
2018-06-21T22:27:55.385Z,11.80
2018-06-21T22:30:01.045Z,11.80
2018-06-21T22:32:06.353Z,10.90
2018-06-21T22:34:11.301Z,11.30
2018-06-21T22:36:16.275Z,11.60
2018-06-21T22:38:21.510Z,11.10
2018-06-21T22:40:26.402Z,11.20
2018-06-21T22:42:31.327Z,11.40
2018-06-21T22:44:37.011Z,11.70
2018-06-21T22:48:46.619Z,11.60
2018-06-21T22:50:51.548Z,11.50
2018-06-21T22:52:56.485Z,11.50
2018-06-21T22:55:01.710Z,11.20
2018-06-21T22:57:07.822Z,11.80
2018-06-21T22:59:13.259Z,11.30
2018-06-21T23:01:19.258Z,11.90
2018-06-21T23:03:26.906Z,11.60
2018-06-21T23:05:32.286Z,11.90
2018-06-21T23:07:37.320Z,11.60
2018-06-21T23:09:42.658Z,11.30
2018-06-21T23:11:47.697Z,11.00
2018-06-21T23:13:53.055Z,11.30
2018-06-21T23:15:58.011Z,11.30
2018-06-21T23:18:02.983Z,11.20
2018-06-21T23:20:08.632Z,11.00
2018-06-21T23:22:13.579Z,11.10
2018-06-21T23:24:18.524Z,11.10
2018-06-21T23:26:23.784Z,11.10
2018-06-21T23:28:28.731Z,10.80
2018-06-21T23:30:33.723Z,11.10
2018-06-21T23:32:38.712Z,11.20
2018-06-21T23:34:43.878Z,11.10
2018-06-21T23:36:49.247Z,11.00
2018-06-21T23:40:58.953Z,11.30
2018-06-21T23:43:03.939Z,11.30
2018-06-21T23:45:09.306Z,11.20
2018-06-21T23:47:14.235Z,11.00
2018-06-21T23:49:19.593Z,11.20
2018-06-21T23:53:29.028Z,11.30
2018-06-21T23:55:34.063Z,11.40
2018-06-21T23:57:39.037Z,11.60
2018-06-21T23:59:44.268Z,11.10
